sensor_id;sensor_type;location;lat;lon;timestamp;temperature;humidity
55173;DHT22;41061;52.822;6.860;2022-09-21T00:00:29;8.10;99.90
55173;DHT22;41061;52.822;6.860;2022-09-21T00:02:56;8.10;99.90
55173;DHT22;41061;52.822;6.860;2022-09-21T00:05:22;8.10;99.90
55173;DHT22;41061;52.822;6.860;2022-09-21T00:07:48;8.10;99.90
55173;DHT22;41061;52.822;6.860;2022-09-21T00:10:14;8.00;99.90
55173;DHT22;41061;52.822;6.860;2022-09-21T00:12:40;8.00;99.90
55173;DHT22;41061;52.822;6.860;2022-09-21T00:15:08;8.00;99.90
55173;DHT22;41061;52.822;6.860;2022-09-21T00:17:35;8.00;99.90
55173;DHT22;41061;52.822;6.860;2022-09-21T00:20:02;8.00;99.90
55173;DHT22;41061;52.822;6.860;2022-09-21T00:22:30;8.00;99.90
55173;DHT22;41061;52.822;6.860;2022-09-21T00:24:55;8.00;99.90
55173;DHT22;41061;52.822;6.860;2022-09-21T00:27:21;8.00;99.90
55173;DHT22;41061;52.822;6.860;2022-09-21T00:29:58;7.90;99.90
55173;DHT22;41061;52.822;6.860;2022-09-21T00:32:25;7.90;99.90
55173;DHT22;41061;52.822;6.860;2022-09-21T00:34:51;7.90;99.90
55173;DHT22;41061;52.822;6.860;2022-09-21T00:37:20;7.90;99.90
55173;DHT22;41061;52.822;6.860;2022-09-21T00:39:47;7.80;99.90
55173;DHT22;41061;52.822;6.860;2022-09-21T00:42:20;7.80;99.90
55173;DHT22;41061;52.822;6.860;2022-09-21T00:44:46;7.80;99.90
55173;DHT22;41061;52.822;6.860;2022-09-21T00:47:16;7.80;99.90
55173;DHT22;41061;52.822;6.860;2022-09-21T00:49:46;7.70;99.90
55173;DHT22;41061;52.822;6.860;2022-09-21T00:52:17;7.80;99.90
55173;DHT22;41061;52.822;6.860;2022-09-21T00:55:02;7.70;99.90
55173;DHT22;41061;52.822;6.860;2022-09-21T00:57:29;7.70;99.90
55173;DHT22;41061;52.822;6.860;2022-09-21T00:59:57;7.70;99.90
55173;DHT22;41061;52.822;6.860;2022-09-21T01:02:26;7.70;99.90
55173;DHT22;41061;52.822;6.860;2022-09-21T01:04:53;7.70;99.90
55173;DHT22;41061;52.822;6.860;2022-09-21T01:07:23;7.60;99.90
55173;DHT22;41061;52.822;6.860;2022-09-21T01:09:53;7.70;99.90
55173;DHT22;41061;52.822;6.860;2022-09-21T01:15:18;7.50;99.90
55173;DHT22;41061;52.822;6.860;2022-09-21T01:17:55;7.50;99.90
55173;DHT22;41061;52.822;6.860;2022-09-21T01:31:10;7.30;99.90
55173;DHT22;41061;52.822;6.860;2022-09-21T01:33:48;7.30;99.90
55173;DHT22;41061;52.822;6.860;2022-09-21T01:36:19;7.30;99.90
55173;DHT22;41061;52.822;6.860;2022-09-21T01:38:51;7.30;99.90
55173;DHT22;41061;52.822;6.860;2022-09-21T01:41:22;7.30;99.90
55173;DHT22;41061;52.822;6.860;2022-09-21T01:43:56;7.20;99.90
55173;DHT22;41061;52.822;6.860;2022-09-21T01:46:27;7.20;99.90
55173;DHT22;41061;52.822;6.860;2022-09-21T01:49:03;7.20;99.90
55173;DHT22;41061;52.822;6.860;2022-09-21T01:51:32;7.20;99.90
55173;DHT22;41061;52.822;6.860;2022-09-21T01:54:07;7.20;99.90
55173;DHT22;41061;52.822;6.860;2022-09-21T01:56:54;7.20;99.90
55173;DHT22;41061;52.822;6.860;2022-09-21T02:02:17;7.10;99.90
55173;DHT22;41061;52.822;6.860;2022-09-21T02:04:44;7.10;99.90
55173;DHT22;41061;52.822;6.860;2022-09-21T02:07:10;7.00;99.90
55173;DHT22;41061;52.822;6.860;2022-09-21T02:09:36;7.10;99.90
55173;DHT22;41061;52.822;6.860;2022-09-21T02:12:03;7.00;99.90
55173;DHT22;41061;52.822;6.860;2022-09-21T02:14:30;7.00;99.90
55173;DHT22;41061;52.822;6.860;2022-09-21T02:17:05;7.00;99.90
55173;DHT22;41061;52.822;6.860;2022-09-21T02:25:06;6.90;99.90
55173;DHT22;41061;52.822;6.860;2022-09-21T02:27:48;6.90;99.90
55173;DHT22;41061;52.822;6.860;2022-09-21T02:30:16;6.90;99.90
55173;DHT22;41061;52.822;6.860;2022-09-21T02:33:11;6.80;99.90
55173;DHT22;41061;52.822;6.860;2022-09-21T02:38:52;6.80;99.90
55173;DHT22;41061;52.822;6.860;2022-09-21T02:41:42;6.80;99.90
55173;DHT22;41061;52.822;6.860;2022-09-21T02:44:20;6.80;99.90
55173;DHT22;41061;52.822;6.860;2022-09-21T02:46:52;6.80;99.90
55173;DHT22;41061;52.822;6.860;2022-09-21T02:49:23;6.80;99.90
55173;DHT22;41061;52.822;6.860;2022-09-21T02:51:52;6.80;99.90
55173;DHT22;41061;52.822;6.860;2022-09-21T02:54:24;6.80;99.90
55173;DHT22;41061;52.822;6.860;2022-09-21T02:56:52;6.70;99.90
55173;DHT22;41061;52.822;6.860;2022-09-21T02:59:19;6.60;99.90
55173;DHT22;41061;52.822;6.860;2022-09-21T03:01:49;6.60;99.90
55173;DHT22;41061;52.822;6.860;2022-09-21T03:04:15;6.60;99.90
55173;DHT22;41061;52.822;6.860;2022-09-21T03:06:42;6.60;99.90
55173;DHT22;41061;52.822;6.860;2022-09-21T03:09:08;6.60;99.90
55173;DHT22;41061;52.822;6.860;2022-09-21T03:11:34;6.50;99.90
55173;DHT22;41061;52.822;6.860;2022-09-21T03:14:01;6.50;99.90
55173;DHT22;41061;52.822;6.860;2022-09-21T03:16:30;6.50;99.90
55173;DHT22;41061;52.822;6.860;2022-09-21T03:18:55;6.50;99.90
55173;DHT22;41061;52.822;6.860;2022-09-21T03:21:21;6.50;99.90
55173;DHT22;41061;52.822;6.860;2022-09-21T03:23:47;6.50;99.90
55173;DHT22;41061;52.822;6.860;2022-09-21T03:26:12;6.50;99.90
55173;DHT22;41061;52.822;6.860;2022-09-21T03:28:38;6.50;99.90
55173;DHT22;41061;52.822;6.860;2022-09-21T03:31:05;6.50;99.90
55173;DHT22;41061;52.822;6.860;2022-09-21T03:33:31;6.50;99.90
55173;DHT22;41061;52.822;6.860;2022-09-21T03:35:57;6.50;99.90
55173;DHT22;41061;52.822;6.860;2022-09-21T03:38:23;6.40;99.90
55173;DHT22;41061;52.822;6.860;2022-09-21T03:40:50;6.40;99.90
55173;DHT22;41061;52.822;6.860;2022-09-21T03:43:16;6.40;99.90
55173;DHT22;41061;52.822;6.860;2022-09-21T03:45:43;6.40;99.90
55173;DHT22;41061;52.822;6.860;2022-09-21T03:48:10;6.40;99.90
55173;DHT22;41061;52.822;6.860;2022-09-21T03:50:36;6.40;99.90
55173;DHT22;41061;52.822;6.860;2022-09-21T03:53:02;6.30;99.90
55173;DHT22;41061;52.822;6.860;2022-09-21T03:55:27;6.30;99.90
55173;DHT22;41061;52.822;6.860;2022-09-21T03:57:54;6.30;99.90
55173;DHT22;41061;52.822;6.860;2022-09-21T04:00:20;6.30;99.90
55173;DHT22;41061;52.822;6.860;2022-09-21T04:02:46;6.30;99.90
55173;DHT22;41061;52.822;6.860;2022-09-21T04:05:14;6.20;99.90
55173;DHT22;41061;52.822;6.860;2022-09-21T04:07:41;6.20;99.90
55173;DHT22;41061;52.822;6.860;2022-09-21T04:10:10;6.20;99.90
55173;DHT22;41061;52.822;6.860;2022-09-21T04:12:38;6.10;99.90
55173;DHT22;41061;52.822;6.860;2022-09-21T04:15:08;6.10;99.90
55173;DHT22;41061;52.822;6.860;2022-09-21T04:17:34;6.10;99.90
55173;DHT22;41061;52.822;6.860;2022-09-21T04:20:00;6.10;99.90
55173;DHT22;41061;52.822;6.860;2022-09-21T04:22:26;6.00;99.90
55173;DHT22;41061;52.822;6.860;2022-09-21T04:24:52;6.00;99.90
55173;DHT22;41061;52.822;6.860;2022-09-21T04:27:18;6.00;99.90
55173;DHT22;41061;52.822;6.860;2022-09-21T04:29:43;6.00;99.90
55173;DHT22;41061;52.822;6.860;2022-09-21T04:32:09;5.90;99.90
55173;DHT22;41061;52.822;6.860;2022-09-21T04:34:36;5.90;99.90
55173;DHT22;41061;52.822;6.860;2022-09-21T04:37:08;6.00;99.90
55173;DHT22;41061;52.822;6.860;2022-09-21T04:39:34;5.90;99.90
55173;DHT22;41061;52.822;6.860;2022-09-21T04:42:00;5.90;99.90
55173;DHT22;41061;52.822;6.860;2022-09-21T04:44:26;5.90;99.90
55173;DHT22;41061;52.822;6.860;2022-09-21T04:46:52;5.90;99.90
55173;DHT22;41061;52.822;6.860;2022-09-21T04:49:17;5.90;99.90
55173;DHT22;41061;52.822;6.860;2022-09-21T04:51:43;5.80;99.90
55173;DHT22;41061;52.822;6.860;2022-09-21T04:54:09;5.80;99.90
55173;DHT22;41061;52.822;6.860;2022-09-21T04:56:35;5.80;99.90
55173;DHT22;41061;52.822;6.860;2022-09-21T04:59:01;5.80;99.90
55173;DHT22;41061;52.822;6.860;2022-09-21T05:01:26;5.80;99.90
55173;DHT22;41061;52.822;6.860;2022-09-21T05:03:52;5.80;99.90
55173;DHT22;41061;52.822;6.860;2022-09-21T05:06:18;5.70;99.90
55173;DHT22;41061;52.822;6.860;2022-09-21T05:08:44;5.70;99.90
55173;DHT22;41061;52.822;6.860;2022-09-21T05:11:28;5.70;99.90
55173;DHT22;41061;52.822;6.860;2022-09-21T05:13:53;5.70;99.90
55173;DHT22;41061;52.822;6.860;2022-09-21T05:16:19;5.70;99.90
55173;DHT22;41061;52.822;6.860;2022-09-21T05:18:45;5.70;99.90
55173;DHT22;41061;52.822;6.860;2022-09-21T05:21:13;5.70;99.90
55173;DHT22;41061;52.822;6.860;2022-09-21T05:23:39;5.70;99.90
55173;DHT22;41061;52.822;6.860;2022-09-21T05:26:05;5.70;99.90
55173;DHT22;41061;52.822;6.860;2022-09-21T05:28:32;5.70;99.90
55173;DHT22;41061;52.822;6.860;2022-09-21T05:33:49;5.70;99.90
55173;DHT22;41061;52.822;6.860;2022-09-21T05:39:00;5.70;99.90
55173;DHT22;41061;52.822;6.860;2022-09-21T05:41:26;5.70;99.90
55173;DHT22;41061;52.822;6.860;2022-09-21T05:43:52;5.70;99.90
55173;DHT22;41061;52.822;6.860;2022-09-21T05:46:28;5.70;99.90
55173;DHT22;41061;52.822;6.860;2022-09-21T05:49:02;5.70;99.90
55173;DHT22;41061;52.822;6.860;2022-09-21T05:57:12;5.80;99.90
55173;DHT22;41061;52.822;6.860;2022-09-21T06:05:16;6.00;99.90
55173;DHT22;41061;52.822;6.860;2022-09-21T06:07:42;6.00;99.90
55173;DHT22;41061;52.822;6.860;2022-09-21T06:10:09;6.00;99.90
55173;DHT22;41061;52.822;6.860;2022-09-21T06:12:36;6.10;99.90
55173;DHT22;41061;52.822;6.860;2022-09-21T06:15:03;6.10;99.90
55173;DHT22;41061;52.822;6.860;2022-09-21T06:17:31;6.20;99.90
55173;DHT22;41061;52.822;6.860;2022-09-21T06:19:56;6.30;99.90
55173;DHT22;41061;52.822;6.860;2022-09-21T06:22:22;6.40;99.90
55173;DHT22;41061;52.822;6.860;2022-09-21T06:24:48;6.40;99.90
55173;DHT22;41061;52.822;6.860;2022-09-21T06:27:13;6.50;99.90
55173;DHT22;41061;52.822;6.860;2022-09-21T06:29:39;6.60;99.90
55173;DHT22;41061;52.822;6.860;2022-09-21T06:32:05;6.70;99.90
55173;DHT22;41061;52.822;6.860;2022-09-21T06:34:30;6.80;99.90
55173;DHT22;41061;52.822;6.860;2022-09-21T06:36:56;6.90;99.90
55173;DHT22;41061;52.822;6.860;2022-09-21T06:39:22;7.00;99.90
55173;DHT22;41061;52.822;6.860;2022-09-21T06:41:48;7.10;99.90
55173;DHT22;41061;52.822;6.860;2022-09-21T06:44:13;7.20;99.90
55173;DHT22;41061;52.822;6.860;2022-09-21T06:46:39;7.30;99.90
55173;DHT22;41061;52.822;6.860;2022-09-21T06:49:05;7.40;99.90
55173;DHT22;41061;52.822;6.860;2022-09-21T06:51:31;7.50;99.90
55173;DHT22;41061;52.822;6.860;2022-09-21T06:53:57;7.60;99.90
55173;DHT22;41061;52.822;6.860;2022-09-21T06:56:24;7.70;99.90
55173;DHT22;41061;52.822;6.860;2022-09-21T06:58:50;7.90;99.90
55173;DHT22;41061;52.822;6.860;2022-09-21T07:01:17;8.00;99.90
55173;DHT22;41061;52.822;6.860;2022-09-21T07:03:43;8.10;99.90
55173;DHT22;41061;52.822;6.860;2022-09-21T07:06:10;8.30;99.90
55173;DHT22;41061;52.822;6.860;2022-09-21T07:08:36;8.40;99.90
55173;DHT22;41061;52.822;6.860;2022-09-21T07:11:04;8.60;99.90
55173;DHT22;41061;52.822;6.860;2022-09-21T07:13:30;8.70;99.90
55173;DHT22;41061;52.822;6.860;2022-09-21T07:15:56;8.90;99.90
55173;DHT22;41061;52.822;6.860;2022-09-21T07:18:22;9.00;99.90
55173;DHT22;41061;52.822;6.860;2022-09-21T07:20:48;9.20;99.90
55173;DHT22;41061;52.822;6.860;2022-09-21T07:23:16;9.30;99.90
55173;DHT22;41061;52.822;6.860;2022-09-21T07:25:43;9.40;99.90
55173;DHT22;41061;52.822;6.860;2022-09-21T07:28:10;9.50;99.90
55173;DHT22;41061;52.822;6.860;2022-09-21T07:30:37;9.70;99.90
55173;DHT22;41061;52.822;6.860;2022-09-21T07:33:03;9.80;99.90
55173;DHT22;41061;52.822;6.860;2022-09-21T07:35:29;9.90;99.90
55173;DHT22;41061;52.822;6.860;2022-09-21T07:37:59;10.00;99.90
55173;DHT22;41061;52.822;6.860;2022-09-21T07:40:26;10.20;99.90
55173;DHT22;41061;52.822;6.860;2022-09-21T07:42:51;10.40;99.90
55173;DHT22;41061;52.822;6.860;2022-09-21T07:45:18;10.50;99.90
55173;DHT22;41061;52.822;6.860;2022-09-21T07:47:43;10.60;99.90
55173;DHT22;41061;52.822;6.860;2022-09-21T07:50:10;10.80;99.90
55173;DHT22;41061;52.822;6.860;2022-09-21T07:52:36;11.00;99.90
55173;DHT22;41061;52.822;6.860;2022-09-21T07:55:02;11.20;99.90
55173;DHT22;41061;52.822;6.860;2022-09-21T07:57:28;11.40;99.90
55173;DHT22;41061;52.822;6.860;2022-09-21T08:00:12;11.60;99.90
55173;DHT22;41061;52.822;6.860;2022-09-21T08:02:38;11.70;99.90
55173;DHT22;41061;52.822;6.860;2022-09-21T08:05:04;11.90;99.90
55173;DHT22;41061;52.822;6.860;2022-09-21T08:07:30;12.00;99.90
55173;DHT22;41061;52.822;6.860;2022-09-21T08:09:55;12.00;99.90
55173;DHT22;41061;52.822;6.860;2022-09-21T08:12:22;12.10;99.90
55173;DHT22;41061;52.822;6.860;2022-09-21T08:14:48;12.20;99.90
55173;DHT22;41061;52.822;6.860;2022-09-21T08:17:14;12.30;99.90
55173;DHT22;41061;52.822;6.860;2022-09-21T08:19:40;12.50;99.90
55173;DHT22;41061;52.822;6.860;2022-09-21T08:22:06;12.60;99.90
55173;DHT22;41061;52.822;6.860;2022-09-21T08:24:32;12.80;99.90
55173;DHT22;41061;52.822;6.860;2022-09-21T08:27:01;12.90;99.90
55173;DHT22;41061;52.822;6.860;2022-09-21T08:29:26;13.00;99.90
55173;DHT22;41061;52.822;6.860;2022-09-21T08:31:53;13.10;99.90
55173;DHT22;41061;52.822;6.860;2022-09-21T08:34:18;13.30;99.90
55173;DHT22;41061;52.822;6.860;2022-09-21T08:36:45;13.30;99.90
55173;DHT22;41061;52.822;6.860;2022-09-21T08:39:11;13.40;99.90
55173;DHT22;41061;52.822;6.860;2022-09-21T08:42:01;13.40;99.90
55173;DHT22;41061;52.822;6.860;2022-09-21T08:47:14;13.60;99.90
55173;DHT22;41061;52.822;6.860;2022-09-21T08:49:52;13.80;99.90
55173;DHT22;41061;52.822;6.860;2022-09-21T08:52:20;14.00;99.90
55173;DHT22;41061;52.822;6.860;2022-09-21T08:55:02;14.10;99.90
55173;DHT22;41061;52.822;6.860;2022-09-21T08:57:31;14.20;99.90
55173;DHT22;41061;52.822;6.860;2022-09-21T08:59:59;14.30;99.90
55173;DHT22;41061;52.822;6.860;2022-09-21T09:17:16;15.00;99.90
55173;DHT22;41061;52.822;6.860;2022-09-21T09:22:36;15.30;99.90
55173;DHT22;41061;52.822;6.860;2022-09-21T09:25:13;15.50;99.90
55173;DHT22;41061;52.822;6.860;2022-09-21T09:27:43;15.60;99.90
55173;DHT22;41061;52.822;6.860;2022-09-21T09:30:20;15.80;99.90
55173;DHT22;41061;52.822;6.860;2022-09-21T09:35:28;16.00;99.90
55173;DHT22;41061;52.822;6.860;2022-09-21T09:51:41;16.50;99.90
55173;DHT22;41061;52.822;6.860;2022-09-21T09:54:13;16.50;99.90
55173;DHT22;41061;52.822;6.860;2022-09-21T09:56:40;16.60;99.90
55173;DHT22;41061;52.822;6.860;2022-09-21T09:59:12;16.60;99.90
55173;DHT22;41061;52.822;6.860;2022-09-21T10:01:46;16.80;99.90
55173;DHT22;41061;52.822;6.860;2022-09-21T10:04:22;17.00;99.90
55173;DHT22;41061;52.822;6.860;2022-09-21T10:06:48;17.10;99.90
55173;DHT22;41061;52.822;6.860;2022-09-21T10:09:30;17.10;99.90
55173;DHT22;41061;52.822;6.860;2022-09-21T10:12:01;17.10;99.90
55173;DHT22;41061;52.822;6.860;2022-09-21T10:14:32;17.20;99.90
55173;DHT22;41061;52.822;6.860;2022-09-21T10:17:06;17.30;99.90
55173;DHT22;41061;52.822;6.860;2022-09-21T10:19:32;17.20;99.90
55173;DHT22;41061;52.822;6.860;2022-09-21T10:22:00;17.30;99.90
55173;DHT22;41061;52.822;6.860;2022-09-21T10:24:35;17.50;99.90
55173;DHT22;41061;52.822;6.860;2022-09-21T10:27:15;17.50;99.90
55173;DHT22;41061;52.822;6.860;2022-09-21T10:29:46;17.70;99.90
55173;DHT22;41061;52.822;6.860;2022-09-21T10:34:39;18.10;99.90
55173;DHT22;41061;52.822;6.860;2022-09-21T10:37:28;18.20;99.90
55173;DHT22;41061;52.822;6.860;2022-09-21T10:39:54;18.10;99.90
55173;DHT22;41061;52.822;6.860;2022-09-21T10:42:21;18.10;99.90
55173;DHT22;41061;52.822;6.860;2022-09-21T10:44:52;18.30;99.90
55173;DHT22;41061;52.822;6.860;2022-09-21T10:47:35;18.30;99.90
55173;DHT22;41061;52.822;6.860;2022-09-21T10:50:27;18.40;99.90
55173;DHT22;41061;52.822;6.860;2022-09-21T10:53:00;18.70;99.90
55173;DHT22;41061;52.822;6.860;2022-09-21T10:55:28;18.80;99.90
55173;DHT22;41061;52.822;6.860;2022-09-21T10:57:54;19.00;99.90
55173;DHT22;41061;52.822;6.860;2022-09-21T11:02:49;18.90;99.90
55173;DHT22;41061;52.822;6.860;2022-09-21T11:05:26;18.80;99.90
55173;DHT22;41061;52.822;6.860;2022-09-21T11:08:05;18.50;99.90
55173;DHT22;41061;52.822;6.860;2022-09-21T11:10:52;18.60;99.90
55173;DHT22;41061;52.822;6.860;2022-09-21T11:13:52;18.70;99.90
55173;DHT22;41061;52.822;6.860;2022-09-21T11:22:14;19.00;99.90
55173;DHT22;41061;52.822;6.860;2022-09-21T11:24:56;19.10;99.90
55173;DHT22;41061;52.822;6.860;2022-09-21T11:27:31;19.30;99.90
55173;DHT22;41061;52.822;6.860;2022-09-21T11:35:44;19.40;99.90
55173;DHT22;41061;52.822;6.860;2022-09-21T11:38:18;19.10;99.90
55173;DHT22;41061;52.822;6.860;2022-09-21T11:41:13;18.70;99.90
55173;DHT22;41061;52.822;6.860;2022-09-21T11:44:03;18.40;99.90
55173;DHT22;41061;52.822;6.860;2022-09-21T11:46:45;18.10;99.90
55173;DHT22;41061;52.822;6.860;2022-09-21T11:49:32;18.20;99.90
55173;DHT22;41061;52.822;6.860;2022-09-21T11:54:58;18.80;99.90
55173;DHT22;41061;52.822;6.860;2022-09-21T12:08:23;20.00;99.90
55173;DHT22;41061;52.822;6.860;2022-09-21T12:13:30;20.30;99.90
55173;DHT22;41061;52.822;6.860;2022-09-21T12:16:12;20.40;99.90
55173;DHT22;41061;52.822;6.860;2022-09-21T12:21:42;20.70;99.90
55173;DHT22;41061;52.822;6.860;2022-09-21T12:24:35;20.90;99.90
55173;DHT22;41061;52.822;6.860;2022-09-21T12:27:28;20.90;99.90
55173;DHT22;41061;52.822;6.860;2022-09-21T12:30:11;21.00;99.90
55173;DHT22;41061;52.822;6.860;2022-09-21T12:35:41;21.30;99.90
55173;DHT22;41061;52.822;6.860;2022-09-21T12:38:28;21.30;99.90
55173;DHT22;41061;52.822;6.860;2022-09-21T12:46:59;21.40;99.90
55173;DHT22;41061;52.822;6.860;2022-09-21T12:49:42;21.60;99.20
55173;DHT22;41061;52.822;6.860;2022-09-21T12:52:17;21.40;98.10
55173;DHT22;41061;52.822;6.860;2022-09-21T12:55:00;21.40;97.30
55173;DHT22;41061;52.822;6.860;2022-09-21T12:57:32;21.40;98.10
55173;DHT22;41061;52.822;6.860;2022-09-21T13:00:21;21.60;98.30
55173;DHT22;41061;52.822;6.860;2022-09-21T13:03:06;21.80;98.20
55173;DHT22;41061;52.822;6.860;2022-09-21T13:06:01;22.00;97.10
55173;DHT22;41061;52.822;6.860;2022-09-21T13:08:43;22.00;97.30
55173;DHT22;41061;52.822;6.860;2022-09-21T13:11:11;22.10;94.80
55173;DHT22;41061;52.822;6.860;2022-09-21T13:13:49;21.90;94.80
55173;DHT22;41061;52.822;6.860;2022-09-21T13:16:26;21.80;95.20
55173;DHT22;41061;52.822;6.860;2022-09-21T13:19:01;21.90;94.30
55173;DHT22;41061;52.822;6.860;2022-09-21T13:21:29;21.90;94.20
55173;DHT22;41061;52.822;6.860;2022-09-21T13:24:02;21.80;92.70
55173;DHT22;41061;52.822;6.860;2022-09-21T13:26:37;21.70;94.00
55173;DHT22;41061;52.822;6.860;2022-09-21T13:34:28;21.70;93.00
55173;DHT22;41061;52.822;6.860;2022-09-21T13:37:22;21.70;93.10
55173;DHT22;41061;52.822;6.860;2022-09-21T13:47:51;21.60;93.20
55173;DHT22;41061;52.822;6.860;2022-09-21T13:50:28;21.80;93.10
55173;DHT22;41061;52.822;6.860;2022-09-21T13:53:00;22.00;92.80
55173;DHT22;41061;52.822;6.860;2022-09-21T13:55:38;22.10;92.50
55173;DHT22;41061;52.822;6.860;2022-09-21T13:58:21;22.20;92.40
55173;DHT22;41061;52.822;6.860;2022-09-21T14:00:55;22.20;91.30
55173;DHT22;41061;52.822;6.860;2022-09-21T14:03:44;22.00;90.70
55173;DHT22;41061;52.822;6.860;2022-09-21T14:06:13;21.90;91.00
55173;DHT22;41061;52.822;6.860;2022-09-21T14:08:57;21.70;91.00
55173;DHT22;41061;52.822;6.860;2022-09-21T14:11:31;21.70;91.30
55173;DHT22;41061;52.822;6.860;2022-09-21T14:14:30;21.80;91.60
55173;DHT22;41061;52.822;6.860;2022-09-21T14:16:59;21.90;92.20
55173;DHT22;41061;52.822;6.860;2022-09-21T14:35:27;20.70;91.00
55173;DHT22;41061;52.822;6.860;2022-09-21T14:37:57;20.50;92.10
55173;DHT22;41061;52.822;6.860;2022-09-21T14:40:33;20.40;92.10
55173;DHT22;41061;52.822;6.860;2022-09-21T14:43:09;20.20;92.30
55173;DHT22;41061;52.822;6.860;2022-09-21T14:59:02;19.00;95.40
55173;DHT22;41061;52.822;6.860;2022-09-21T15:04:07;19.00;94.70
55173;DHT22;41061;52.822;6.860;2022-09-21T15:06:48;18.90;95.20
55173;DHT22;41061;52.822;6.860;2022-09-21T15:12:54;18.80;97.00
55173;DHT22;41061;52.822;6.860;2022-09-21T15:15:36;18.80;97.60
55173;DHT22;41061;52.822;6.860;2022-09-21T15:18:17;18.70;97.90
55173;DHT22;41061;52.822;6.860;2022-09-21T15:21:02;18.70;98.30
55173;DHT22;41061;52.822;6.860;2022-09-21T15:23:31;18.70;97.70
55173;DHT22;41061;52.822;6.860;2022-09-21T15:26:03;18.60;97.80
55173;DHT22;41061;52.822;6.860;2022-09-21T15:28:37;18.60;97.40
55173;DHT22;41061;52.822;6.860;2022-09-21T15:31:07;18.50;97.70
55173;DHT22;41061;52.822;6.860;2022-09-21T15:33:37;18.40;98.30
55173;DHT22;41061;52.822;6.860;2022-09-21T15:36:04;18.40;98.40
55173;DHT22;41061;52.822;6.860;2022-09-21T15:38:33;18.30;98.80
55173;DHT22;41061;52.822;6.860;2022-09-21T15:41:01;18.20;98.90
55173;DHT22;41061;52.822;6.860;2022-09-21T15:43:27;18.20;98.60
55173;DHT22;41061;52.822;6.860;2022-09-21T15:46:01;18.10;99.10
55173;DHT22;41061;52.822;6.860;2022-09-21T15:48:29;18.00;99.30
55173;DHT22;41061;52.822;6.860;2022-09-21T15:53:38;17.90;99.90
55173;DHT22;41061;52.822;6.860;2022-09-21T15:56:05;17.90;99.70
55173;DHT22;41061;52.822;6.860;2022-09-21T15:58:38;17.80;99.90
55173;DHT22;41061;52.822;6.860;2022-09-21T16:01:14;17.70;99.90
55173;DHT22;41061;52.822;6.860;2022-09-21T16:03:41;17.70;99.90
55173;DHT22;41061;52.822;6.860;2022-09-21T16:06:24;17.60;99.80
55173;DHT22;41061;52.822;6.860;2022-09-21T16:08:51;17.50;99.50
55173;DHT22;41061;52.822;6.860;2022-09-21T16:14:17;17.30;99.90
55173;DHT22;41061;52.822;6.860;2022-09-21T16:22:14;17.20;99.90
55173;DHT22;41061;52.822;6.860;2022-09-21T16:24:51;17.10;99.90
55173;DHT22;41061;52.822;6.860;2022-09-21T16:27:18;17.10;99.90
55173;DHT22;41061;52.822;6.860;2022-09-21T16:29:46;17.10;99.90
55173;DHT22;41061;52.822;6.860;2022-09-21T16:34:49;17.00;99.90
55173;DHT22;41061;52.822;6.860;2022-09-21T16:39:45;17.00;99.90
55173;DHT22;41061;52.822;6.860;2022-09-21T16:42:11;17.00;99.90
55173;DHT22;41061;52.822;6.860;2022-09-21T16:44:37;17.00;99.90
55173;DHT22;41061;52.822;6.860;2022-09-21T16:47:14;16.90;99.90
55173;DHT22;41061;52.822;6.860;2022-09-21T16:49:41;16.90;99.90
55173;DHT22;41061;52.822;6.860;2022-09-21T16:52:07;16.70;99.90
55173;DHT22;41061;52.822;6.860;2022-09-21T16:54:34;16.70;99.90
55173;DHT22;41061;52.822;6.860;2022-09-21T16:57:02;16.60;99.90
55173;DHT22;41061;52.822;6.860;2022-09-21T16:59:29;16.50;99.90
55173;DHT22;41061;52.822;6.860;2022-09-21T17:01:58;16.40;99.90
55173;DHT22;41061;52.822;6.860;2022-09-21T17:04:29;16.30;99.90
55173;DHT22;41061;52.822;6.860;2022-09-21T17:06:56;16.30;99.90
55173;DHT22;41061;52.822;6.860;2022-09-21T17:09:29;16.20;99.90
55173;DHT22;41061;52.822;6.860;2022-09-21T17:11:57;16.10;99.90
55173;DHT22;41061;52.822;6.860;2022-09-21T17:14:31;16.10;99.90
55173;DHT22;41061;52.822;6.860;2022-09-21T17:17:02;15.90;99.90
55173;DHT22;41061;52.822;6.860;2022-09-21T17:19:30;15.80;99.90
55173;DHT22;41061;52.822;6.860;2022-09-21T17:21:56;15.70;99.90
55173;DHT22;41061;52.822;6.860;2022-09-21T17:24:24;15.60;99.90
55173;DHT22;41061;52.822;6.860;2022-09-21T17:26:51;15.50;99.90
55173;DHT22;41061;52.822;6.860;2022-09-21T17:29:18;15.40;99.90
55173;DHT22;41061;52.822;6.860;2022-09-21T17:31:46;15.30;99.90
55173;DHT22;41061;52.822;6.860;2022-09-21T17:34:16;15.20;99.90
55173;DHT22;41061;52.822;6.860;2022-09-21T17:36:42;15.00;99.90
55173;DHT22;41061;52.822;6.860;2022-09-21T17:39:08;15.00;99.90
55173;DHT22;41061;52.822;6.860;2022-09-21T17:41:40;14.80;99.90
55173;DHT22;41061;52.822;6.860;2022-09-21T17:44:15;14.60;99.90
55173;DHT22;41061;52.822;6.860;2022-09-21T17:46:59;14.50;99.90
55173;DHT22;41061;52.822;6.860;2022-09-21T17:49:27;14.30;99.90
55173;DHT22;41061;52.822;6.860;2022-09-21T17:51:53;14.20;99.90
55173;DHT22;41061;52.822;6.860;2022-09-21T17:54:38;14.20;99.90
55173;DHT22;41061;52.822;6.860;2022-09-21T17:59:49;14.10;99.90
55173;DHT22;41061;52.822;6.860;2022-09-21T18:02:24;14.00;99.90
55173;DHT22;41061;52.822;6.860;2022-09-21T18:04:58;13.90;99.90
55173;DHT22;41061;52.822;6.860;2022-09-21T18:07:25;13.80;99.90
55173;DHT22;41061;52.822;6.860;2022-09-21T18:09:51;13.70;99.90
55173;DHT22;41061;52.822;6.860;2022-09-21T18:12:40;13.60;99.90
55173;DHT22;41061;52.822;6.860;2022-09-21T18:15:39;13.50;99.90
55173;DHT22;41061;52.822;6.860;2022-09-21T18:20:56;13.40;99.90
55173;DHT22;41061;52.822;6.860;2022-09-21T18:24:20;13.30;99.90
55173;DHT22;41061;52.822;6.860;2022-09-21T18:26:40;13.20;99.90
55173;DHT22;41061;52.822;6.860;2022-09-21T18:29:07;13.10;99.90
55173;DHT22;41061;52.822;6.860;2022-09-21T18:34:22;12.90;99.90
55173;DHT22;41061;52.822;6.860;2022-09-21T18:39:57;12.80;99.90
55173;DHT22;41061;52.822;6.860;2022-09-21T18:43:14;12.70;99.90
55173;DHT22;41061;52.822;6.860;2022-09-21T18:45:23;12.60;99.90
55173;DHT22;41061;52.822;6.860;2022-09-21T18:51:14;12.40;99.90
55173;DHT22;41061;52.822;6.860;2022-09-21T18:53:51;12.30;99.90
55173;DHT22;41061;52.822;6.860;2022-09-21T18:56:26;12.20;99.90
55173;DHT22;41061;52.822;6.860;2022-09-21T18:58:53;12.20;99.90
55173;DHT22;41061;52.822;6.860;2022-09-21T19:01:21;12.10;99.90
55173;DHT22;41061;52.822;6.860;2022-09-21T19:03:48;12.10;99.90
55173;DHT22;41061;52.822;6.860;2022-09-21T19:06:45;12.00;99.90
55173;DHT22;41061;52.822;6.860;2022-09-21T19:09:32;12.00;99.90
55173;DHT22;41061;52.822;6.860;2022-09-21T19:21:58;11.70;99.90
55173;DHT22;41061;52.822;6.860;2022-09-21T19:31:49;11.40;99.90
55173;DHT22;41061;52.822;6.860;2022-09-21T19:34:17;11.40;99.90
55173;DHT22;41061;52.822;6.860;2022-09-21T19:36:44;11.30;99.90
55173;DHT22;41061;52.822;6.860;2022-09-21T19:39:12;11.30;99.90
55173;DHT22;41061;52.822;6.860;2022-09-21T19:41:51;11.30;99.90